Time;durP1;ratioP1;P1;durP2;ratioP2;P2;SDS_P1;SDS_P2;PMS_P1;PMS_P2;Temp;Humidity;BMP_temperature;BMP_pressure;BME280_temperature;BME280_humidity;BME280_pressure;Samples;Min_cycle;Max_cycle;Signal;HPM_P1;HPM_P2
2022/02/08 00:02:42;;;;;;;;;;;6.80;99.90;;;;;;8383868;28;19927;-73
2022/02/08 00:06:46;;;;;;;;;;;6.80;99.90;;;;;;8388373;28;20004;-73
2022/02/08 00:10:48;;;;;;;;;;;6.90;99.90;;;;;;8398673;28;20401;-73
2022/02/08 00:14:51;;;;;;;;;;;6.90;99.90;;;;;;8375790;28;19963;-73
2022/02/08 00:18:52;;;;;;;;;;;6.90;99.90;;;;;;8391307;28;20279;-73
2022/02/08 00:22:54;;;;;;;;;;;7.00;99.90;;;;;;8378601;28;19924;-73
2022/02/08 00:26:59;;;;;;;;;;;7.00;99.90;;;;;;8385434;28;19924;-73
2022/02/08 00:31:01;;;;;;;;;;;7.10;99.90;;;;;;8394636;28;20224;-73
2022/02/08 00:35:02;;;;;;;;;;;7.20;99.90;;;;;;8391092;28;20074;-73
2022/02/08 00:39:07;;;;;;;;;;;7.30;99.90;;;;;;8380099;28;19948;-73
2022/02/08 00:43:09;;;;;;;;;;;7.30;99.90;;;;;;8396123;28;20004;-72
2022/02/08 00:47:28;;;;;;;;;;;7.40;99.90;;;;;;8377614;28;20352;-73
2022/02/08 00:51:40;;;;;;;;;;;7.50;99.90;;;;;;8394119;28;20094;-72
2022/02/08 00:55:42;;;;;;;;;;;7.50;99.90;;;;;;8396336;28;19928;-73
2022/02/08 00:59:43;;;;;;;;;;;7.60;99.90;;;;;;8395570;28;20009;-73
2022/02/08 01:03:45;;;;;;;;;;;7.60;99.90;;;;;;8389678;28;20014;-73
2022/02/08 01:07:47;;;;;;;;;;;7.70;99.90;;;;;;8397933;28;20008;-73
2022/02/08 01:11:52;;;;;;;;;;;7.70;99.90;;;;;;8395964;28;19926;-73
2022/02/08 01:15:55;;;;;;;;;;;7.70;99.90;;;;;;8389280;28;19967;-73
2022/02/08 01:20:07;;;;;;;;;;;7.80;99.90;;;;;;8373789;28;19975;-73
2022/02/08 01:24:08;;;;;;;;;;;7.80;99.90;;;;;;8391591;28;19967;-73
2022/02/08 01:29:20;;;;;;;;;;;7.80;99.90;;;;;;8374348;28;20882;-72
2022/02/08 01:41:33;;;;;;;;;;;7.90;99.90;;;;;;8388570;28;19929;-73
2022/02/08 01:45:42;;;;;;;;;;;7.90;99.90;;;;;;8387254;28;19997;-73
2022/02/08 01:54:04;;;;;;;;;;;7.80;99.90;;;;;;8387101;28;19968;-73
2022/02/08 01:58:07;;;;;;;;;;;7.90;99.90;;;;;;8370470;28;19964;-73
2022/02/08 02:02:08;;;;;;;;;;;7.90;99.90;;;;;;8386054;28;20657;-73
2022/02/08 02:06:10;;;;;;;;;;;7.90;99.90;;;;;;8383938;28;19955;-73
2022/02/08 02:10:12;;;;;;;;;;;7.90;99.90;;;;;;8388937;28;19976;-73
2022/02/08 02:14:13;;;;;;;;;;;7.90;99.90;;;;;;8391198;28;20401;-73
2022/02/08 02:18:15;;;;;;;;;;;7.90;99.90;;;;;;8385116;28;19924;-73
2022/02/08 02:22:17;;;;;;;;;;;8.00;99.90;;;;;;8394010;28;20379;-74
2022/02/08 02:26:18;;;;;;;;;;;8.00;99.90;;;;;;8393673;28;19967;-73
2022/02/08 02:30:20;;;;;;;;;;;8.00;99.90;;;;;;8385086;28;20033;-73
2022/02/08 02:34:23;;;;;;;;;;;8.10;99.90;;;;;;8395992;28;20515;-73
2022/02/08 02:38:25;;;;;;;;;;;8.10;99.90;;;;;;8388329;28;20350;-73
2022/02/08 02:42:29;;;;;;;;;;;8.10;99.90;;;;;;8389372;28;20031;-73
2022/02/08 02:46:31;;;;;;;;;;;8.10;99.90;;;;;;8373609;28;19964;-80
2022/02/08 02:50:32;;;;;;;;;;;8.10;99.90;;;;;;8370118;28;20445;-73
2022/02/08 02:54:34;;;;;;;;;;;8.10;99.90;;;;;;8391956;28;19971;-73
2022/02/08 02:58:38;;;;;;;;;;;8.10;99.90;;;;;;8395888;28;20343;-73
2022/02/08 03:02:47;;;;;;;;;;;8.10;99.90;;;;;;8364777;28;21266;-73
2022/02/08 03:19:31;;;;;;;;;;;8.20;99.90;;;;;;8391515;28;20019;-73
2022/02/08 03:23:34;;;;;;;;;;;8.20;99.90;;;;;;8393697;28;20010;-73
2022/02/08 03:27:35;;;;;;;;;;;8.20;99.90;;;;;;8398083;28;19980;-73
2022/02/08 03:31:37;;;;;;;;;;;8.20;99.90;;;;;;8369686;28;19968;-73
2022/02/08 03:35:38;;;;;;;;;;;8.30;99.90;;;;;;8374964;28;19955;-73
2022/02/08 03:39:43;;;;;;;;;;;8.30;99.90;;;;;;8376660;28;19964;-73
2022/02/08 03:43:46;;;;;;;;;;;8.40;99.90;;;;;;8389604;28;19948;-73
2022/02/08 03:47:48;;;;;;;;;;;8.40;99.90;;;;;;8401401;28;19924;-73
2022/02/08 03:51:52;;;;;;;;;;;8.50;99.90;;;;;;8394266;28;20300;-73
2022/02/08 03:55:54;;;;;;;;;;;8.60;99.90;;;;;;8393983;28;19968;-74
2022/02/08 03:59:56;;;;;;;;;;;8.60;99.90;;;;;;8392545;28;19925;-72
2022/02/08 04:08:18;;;;;;;;;;;8.70;99.90;;;;;;8398707;28;19980;-73
2022/02/08 04:12:28;;;;;;;;;;;8.70;99.90;;;;;;8404159;28;19932;-73
2022/02/08 04:16:35;;;;;;;;;;;8.70;99.90;;;;;;8373726;28;19935;-73
2022/02/08 04:42:13;;;;;;;;;;;8.90;99.90;;;;;;8390237;28;20039;-73
2022/02/08 04:50:19;;;;;;;;;;;8.90;99.90;;;;;;8388782;28;19936;-73
2022/02/08 04:58:56;;;;;;;;;;;8.90;99.90;;;;;;8392008;28;19962;-73
2022/02/08 05:54:31;;;;;;;;;;;8.70;99.90;;;;;;8386944;28;19952;-73
2022/02/08 05:58:33;;;;;;;;;;;8.70;99.90;;;;;;8394563;28;19928;-73
2022/02/08 06:02:35;;;;;;;;;;;8.70;99.90;;;;;;8380407;28;19940;-73
2022/02/08 06:06:36;;;;;;;;;;;8.70;99.90;;;;;;8384677;28;19932;-73
2022/02/08 06:10:47;;;;;;;;;;;8.70;99.90;;;;;;8373364;28;19925;-73
2022/02/08 06:14:56;;;;;;;;;;;8.70;99.90;;;;;;8386270;28;19931;-73
2022/02/08 06:29:32;;;;;;;;;;;8.70;99.90;;;;;;8389705;28;19934;-73
2022/02/08 06:33:27;;;;;;;;;;;8.70;99.90;;;;;;8396287;28;19928;-73
2022/02/08 06:37:32;;;;;;;;;;;8.70;99.90;;;;;;8390931;28;19964;-73
2022/02/08 06:41:34;;;;;;;;;;;8.70;99.90;;;;;;8376753;28;20403;-73
2022/02/08 06:45:35;;;;;;;;;;;8.80;99.90;;;;;;8371552;28;19925;-73
2022/02/08 06:49:37;;;;;;;;;;;8.70;99.90;;;;;;8387681;28;20019;-73
2022/02/08 06:53:39;;;;;;;;;;;8.70;99.90;;;;;;8388890;28;19968;-73
2022/02/08 06:58:02;;;;;;;;;;;8.80;99.90;;;;;;8375139;28;19931;-73
2022/02/08 07:02:04;;;;;;;;;;;8.80;99.90;;;;;;8370677;28;19964;-73
2022/02/08 07:06:06;;;;;;;;;;;8.90;99.90;;;;;;8386911;28;20030;-73
2022/02/08 07:10:08;;;;;;;;;;;8.90;99.90;;;;;;8400192;28;19974;-73
2022/02/08 07:14:10;;;;;;;;;;;8.90;99.90;;;;;;8399618;28;20007;-74
2022/02/08 07:18:11;;;;;;;;;;;9.00;99.90;;;;;;8402251;28;19956;-73
2022/02/08 07:22:13;;;;;;;;;;;9.00;99.90;;;;;;8396974;28;19964;-73
2022/02/08 07:26:14;;;;;;;;;;;9.10;99.90;;;;;;8396397;28;19963;-73
2022/02/08 07:30:16;;;;;;;;;;;9.10;99.90;;;;;;8382855;28;19982;-73
2022/02/08 07:34:28;;;;;;;;;;;9.10;99.90;;;;;;8391534;28;20403;-73
2022/02/08 07:38:35;;;;;;;;;;;9.10;99.90;;;;;;8386120;28;20003;-72
2022/02/08 07:42:37;;;;;;;;;;;9.10;99.90;;;;;;8375345;28;19964;-73
2022/02/08 07:46:38;;;;;;;;;;;9.10;99.90;;;;;;8390535;28;19928;-73
2022/02/08 07:50:41;;;;;;;;;;;9.20;99.90;;;;;;8396549;28;19935;-73
2022/02/08 07:54:43;;;;;;;;;;;9.20;99.90;;;;;;8394989;28;19932;-73
2022/02/08 07:58:45;;;;;;;;;;;9.20;99.90;;;;;;8387616;28;19939;-73
2022/02/08 08:02:46;;;;;;;;;;;9.20;99.90;;;;;;8390974;28;19925;-76
2022/02/08 08:06:48;;;;;;;;;;;9.30;99.90;;;;;;8378639;28;20291;-76
2022/02/08 08:10:50;;;;;;;;;;;9.30;99.90;;;;;;8398321;28;19960;-76
2022/02/08 08:14:54;;;;;;;;;;;9.30;99.90;;;;;;8378191;28;19986;-76
2022/02/08 08:19:21;;;;;;;;;;;9.40;99.90;;;;;;8399758;28;19932;-76
2022/02/08 08:23:23;;;;;;;;;;;9.40;99.90;;;;;;8396830;28;20357;-76
2022/02/08 08:27:24;;;;;;;;;;;9.50;99.90;;;;;;8371597;28;19924;-76
2022/02/08 08:31:26;;;;;;;;;;;9.50;99.90;;;;;;8397282;28;20283;-76
2022/02/08 08:35:40;;;;;;;;;;;9.50;99.90;;;;;;8380509;28;20328;-76
2022/02/08 08:39:49;;;;;;;;;;;9.60;99.90;;;;;;8396254;28;20340;-76
2022/02/08 08:48:46;;;;;;;;;;;9.70;99.90;;;;;;8394065;28;19928;-76
2022/02/08 08:52:58;;;;;;;;;;;9.80;99.90;;;;;;8388611;28;19964;-76
2022/02/08 08:57:00;;;;;;;;;;;9.80;99.90;;;;;;8378115;28;19975;-76
2022/02/08 09:01:03;;;;;;;;;;;9.90;99.90;;;;;;8391666;28;20008;-76
2022/02/08 09:05:09;;;;;;;;;;;9.90;99.90;;;;;;8378102;28;19928;-76
2022/02/08 09:09:14;;;;;;;;;;;10.00;99.90;;;;;;8377828;28;19925;-76
2022/02/08 09:13:24;;;;;;;;;;;10.00;99.90;;;;;;8368201;28;19928;-76
2022/02/08 09:22:06;;;;;;;;;;;10.10;99.90;;;;;;8388061;28;19931;-76
2022/02/08 09:26:14;;;;;;;;;;;10.10;99.90;;;;;;8392825;28;20414;-76
2022/02/08 09:30:19;;;;;;;;;;;10.20;99.90;;;;;;8377363;28;19925;-76
2022/02/08 09:34:20;;;;;;;;;;;10.20;99.90;;;;;;8394546;28;19925;-76
2022/02/08 09:38:22;;;;;;;;;;;10.30;99.90;;;;;;8394955;28;20043;-76
2022/02/08 09:42:24;;;;;;;;;;;10.30;99.90;;;;;;8393999;28;19968;-76
2022/02/08 09:46:26;;;;;;;;;;;10.40;99.90;;;;;;8388887;28;20429;-77
2022/02/08 09:50:30;;;;;;;;;;;10.40;99.90;;;;;;8394088;28;19971;-76
2022/02/08 09:54:32;;;;;;;;;;;10.50;99.90;;;;;;8392635;28;19928;-76
2022/02/08 09:58:34;;;;;;;;;;;10.50;99.90;;;;;;8394126;28;19990;-76
2022/02/08 10:02:36;;;;;;;;;;;10.50;99.90;;;;;;8367638;28;19932;-76
2022/02/08 10:06:40;;;;;;;;;;;10.60;99.90;;;;;;8396024;28;19924;-76
2022/02/08 10:10:43;;;;;;;;;;;10.60;99.90;;;;;;8394178;28;19932;-76
2022/02/08 10:18:57;;;;;;;;;;;10.70;99.90;;;;;;8376813;28;19973;-76
2022/02/08 10:19:51;;;;;;;;;;;10.80;99.90;;;;;;8391600;28;20011;-76
2022/02/08 10:23:58;;;;;;;;;;;10.80;99.90;;;;;;8386793;28;19990;-76
2022/02/08 10:28:31;;;;;;;;;;;10.80;99.90;;;;;;8392824;28;19932;-76
2022/02/08 10:37:38;;;;;;;;;;;11.00;99.90;;;;;;8396242;28;20486;-76
2022/02/08 10:41:45;;;;;;;;;;;11.10;99.90;;;;;;8389888;28;19928;-76
2022/02/08 10:45:47;;;;;;;;;;;11.10;99.90;;;;;;8374373;28;20008;-76
2022/02/08 10:49:49;;;;;;;;;;;11.20;99.90;;;;;;8395022;28;19951;-76
2022/02/08 10:53:57;;;;;;;;;;;11.30;99.90;;;;;;8395586;28;19924;-76
2022/02/08 10:58:10;;;;;;;;;;;11.40;99.90;;;;;;8385685;28;20020;-76
2022/02/08 11:02:27;;;;;;;;;;;11.40;99.90;;;;;;8387460;28;19925;-76
2022/02/08 11:06:36;;;;;;;;;;;11.50;99.90;;;;;;8385486;28;19932;-76
2022/02/08 11:23:33;;;;;;;;;;;11.80;99.90;;;;;;8396124;28;19964;-76
2022/02/08 11:27:42;;;;;;;;;;;11.80;99.90;;;;;;8393113;28;20002;-76
2022/02/08 11:31:50;;;;;;;;;;;11.80;99.90;;;;;;8390278;28;20399;-76
2022/02/08 11:49:30;;;;;;;;;;;12.10;99.90;;;;;;8396194;28;19925;-76
2022/02/08 11:57:51;;;;;;;;;;;12.40;99.90;;;;;;8392099;28;19955;-76
2022/02/08 12:06:26;;;;;;;;;;;12.90;99.90;;;;;;8397236;28;19940;-76
2022/02/08 12:10:41;;;;;;;;;;;13.00;99.90;;;;;;8392737;28;20387;-76
2022/02/08 12:36:31;;;;;;;;;;;12.50;99.90;;;;;;8395981;28;19931;-77
2022/02/08 12:58:14;;;;;;;;;;;12.50;99.90;;;;;;8386906;28;19924;-76
2022/02/08 14:01:30;;;;;;;;;;;12.20;99.90;;;;;;8394598;28;19960;-77
2022/02/08 14:07:21;;;;;;;;;;;12.00;99.90;;;;;;8385740;28;19929;-76
2022/02/08 14:20:30;;;;;;;;;;;12.10;99.90;;;;;;8393122;28;19931;-76
2022/02/08 14:24:49;;;;;;;;;;;12.10;99.90;;;;;;8389937;28;19929;-76
2022/02/08 14:29:07;;;;;;;;;;;12.10;99.90;;;;;;8376138;28;19932;-76
2022/02/08 14:48:52;;;;;;;;;;;12.30;99.90;;;;;;8390175;28;20889;-76
2022/02/08 15:16:25;;;;;;;;;;;11.90;99.90;;;;;;8390058;28;19935;-76
2022/02/08 15:20:28;;;;;;;;;;;11.90;99.90;;;;;;8380669;28;19972;-76
2022/02/08 15:24:29;;;;;;;;;;;11.80;99.90;;;;;;8394535;28;19967;-76
2022/02/08 15:28:31;;;;;;;;;;;11.80;99.90;;;;;;8391254;28;20455;-76
2022/02/08 15:32:35;;;;;;;;;;;11.70;99.90;;;;;;8397069;28;19992;-76
2022/02/08 15:36:36;;;;;;;;;;;11.70;99.90;;;;;;8389605;28;19924;-76
2022/02/08 15:40:38;;;;;;;;;;;11.60;99.90;;;;;;8394593;28;20325;-76
2022/02/08 15:44:45;;;;;;;;;;;11.50;99.90;;;;;;8391176;28;19975;-77
2022/02/08 15:48:49;;;;;;;;;;;11.40;99.90;;;;;;8394498;28;19982;-77
2022/02/08 16:01:09;;;;;;;;;;;11.30;99.90;;;;;;8366988;28;19964;-77
2022/02/08 16:09:56;;;;;;;;;;;11.20;99.90;;;;;;8363548;28;19971;-76
2022/02/08 16:15:00;;;;;;;;;;;11.10;99.90;;;;;;8365645;28;19964;-76
2022/02/08 16:18:37;;;;;;;;;;;11.00;99.90;;;;;;8354857;28;19967;-76
2022/02/08 16:27:01;;;;;;;;;;;10.90;99.90;;;;;;8366649;28;20365;-76
2022/02/08 16:31:27;;;;;;;;;;;10.90;99.90;;;;;;8364178;28;19929;-76
2022/02/08 16:57:00;;;;;;;;;;;10.70;99.90;;;;;;8365699;28;19924;-76
2022/02/08 17:01:10;;;;;;;;;;;10.60;99.90;;;;;;8343370;28;20310;-76
2022/02/08 17:05:13;;;;;;;;;;;10.60;99.90;;;;;;8362308;28;20308;-76
2022/02/08 17:09:20;;;;;;;;;;;10.60;99.90;;;;;;8365869;28;20047;-76
2022/02/08 17:14:15;;;;;;;;;;;10.60;99.90;;;;;;8357641;28;19932;-77
2022/02/08 17:48:24;;;;;;;;;;;10.40;99.90;;;;;;8364863;28;19992;-76
2022/02/08 17:52:26;;;;;;;;;;;10.40;99.90;;;;;;8352196;28;20299;-76
2022/02/08 17:56:27;;;;;;;;;;;10.30;99.90;;;;;;8363769;28;19939;-76
2022/02/08 18:00:33;;;;;;;;;;;10.30;99.90;;;;;;8372087;28;19961;-76
2022/02/08 18:04:35;;;;;;;;;;;10.30;99.90;;;;;;8364091;28;19947;-76
2022/02/08 18:08:38;;;;;;;;;;;10.30;99.90;;;;;;8360633;28;19959;-76
2022/02/08 18:12:43;;;;;;;;;;;10.30;99.90;;;;;;8376628;28;20377;-76
2022/02/08 18:16:52;;;;;;;;;;;10.30;99.90;;;;;;8365639;28;19967;-76
2022/02/08 18:21:04;;;;;;;;;;;10.30;99.90;;;;;;8369786;28;19975;-76
2022/02/08 18:50:24;;;;;;;;;;;10.20;99.90;;;;;;8367459;28;20011;-75
2022/02/08 18:53:33;;;;;;;;;;;10.10;99.90;;;;;;8364534;28;19928;-75
2022/02/08 19:05:17;;;;;;;;;;;10.10;99.90;;;;;;8359688;28;20204;-76
2022/02/08 19:21:44;;;;;;;;;;;9.90;99.90;;;;;;8362149;28;20548;-76
2022/02/08 19:25:45;;;;;;;;;;;9.80;99.90;;;;;;8362010;28;19968;-75
2022/02/08 19:29:48;;;;;;;;;;;9.80;99.90;;;;;;8373413;28;20359;-76
2022/02/08 19:33:50;;;;;;;;;;;9.70;99.90;;;;;;8361259;28;20353;-75
2022/02/08 19:37:52;;;;;;;;;;;9.70;99.90;;;;;;8376986;28;19967;-76
2022/02/08 19:41:53;;;;;;;;;;;9.70;99.90;;;;;;8394410;28;19968;-75
2022/02/08 19:45:55;;;;;;;;;;;9.60;99.90;;;;;;8365602;28;20015;-76
2022/02/08 19:49:58;;;;;;;;;;;9.60;99.90;;;;;;8371003;28;20032;-75
2022/02/08 19:54:03;;;;;;;;;;;9.60;99.90;;;;;;8353873;28;19928;-75
2022/02/08 19:58:12;;;;;;;;;;;9.60;99.90;;;;;;8365067;28;19925;-75
2022/02/08 20:02:16;;;;;;;;;;;9.60;99.90;;;;;;8359270;28;19967;-75
2022/02/08 20:06:19;;;;;;;;;;;9.60;99.90;;;;;;8369883;28;19932;-76
2022/02/08 20:10:21;;;;;;;;;;;9.60;99.90;;;;;;8365296;28;19971;-76
2022/02/08 20:14:23;;;;;;;;;;;9.60;99.90;;;;;;8356025;28;19971;-76
2022/02/08 20:18:25;;;;;;;;;;;9.70;99.90;;;;;;8367616;28;19939;-76
2022/02/08 20:22:27;;;;;;;;;;;9.70;99.90;;;;;;8359494;28;19968;-75
2022/02/08 20:30:46;;;;;;;;;;;9.80;99.90;;;;;;8362943;28;20490;-75
2022/02/08 20:34:47;;;;;;;;;;;9.80;99.90;;;;;;8362749;28;20058;-76
2022/02/08 20:38:49;;;;;;;;;;;9.80;99.90;;;;;;8361625;28;20240;-76
2022/02/08 20:42:55;;;;;;;;;;;9.80;99.90;;;;;;8360399;28;19972;-76
2022/02/08 20:47:05;;;;;;;;;;;9.80;99.90;;;;;;8361056;28;19990;-75
2022/02/08 20:51:08;;;;;;;;;;;9.90;99.90;;;;;;8364874;28;20376;-76
2022/02/08 20:55:12;;;;;;;;;;;9.80;99.90;;;;;;8347036;28;20024;-75
2022/02/08 20:59:14;;;;;;;;;;;9.80;99.90;;;;;;8348783;28;19932;-75
2022/02/08 21:07:20;;;;;;;;;;;9.80;99.90;;;;;;8362218;28;19957;-75
2022/02/08 21:11:49;;;;;;;;;;;9.80;99.90;;;;;;8361888;28;19971;-76
2022/02/08 21:15:44;;;;;;;;;;;9.80;99.90;;;;;;8361549;28;19936;-75
2022/02/08 21:19:46;;;;;;;;;;;9.80;99.90;;;;;;8359431;28;20677;-76
2022/02/08 21:23:50;;;;;;;;;;;9.80;99.90;;;;;;8376929;28;19929;-76
2022/02/08 21:27:59;;;;;;;;;;;9.80;99.90;;;;;;8363513;28;20015;-76
2022/02/08 21:32:24;;;;;;;;;;;9.80;99.90;;;;;;8355658;28;19968;-76
2022/02/08 21:49:18;;;;;;;;;;;9.80;99.90;;;;;;8363585;28;20375;-75
2022/02/08 21:53:23;;;;;;;;;;;9.80;99.90;;;;;;8350303;28;20007;-75
2022/02/08 21:57:41;;;;;;;;;;;9.80;99.90;;;;;;8361929;28;20388;-76
2022/02/08 22:01:42;;;;;;;;;;;9.80;99.90;;;;;;8362934;28;19956;-76
2022/02/08 22:05:45;;;;;;;;;;;9.70;99.90;;;;;;8376967;28;20036;-75
2022/02/08 22:09:55;;;;;;;;;;;9.70;99.90;;;;;;8376661;28;19979;-76
2022/02/08 22:22:45;;;;;;;;;;;9.70;99.90;;;;;;8380421;28;19990;-76
2022/02/08 22:31:12;;;;;;;;;;;9.70;99.90;;;;;;8384469;28;19924;-76
2022/02/08 22:35:33;;;;;;;;;;;9.70;99.90;;;;;;8376107;28;20406;-75
2022/02/08 22:39:45;;;;;;;;;;;9.70;99.90;;;;;;8381661;28;19928;-75
2022/02/08 22:43:53;;;;;;;;;;;9.70;99.90;;;;;;8377461;28;19929;-76
2022/02/08 22:47:55;;;;;;;;;;;9.70;99.90;;;;;;8386293;28;20332;-76
2022/02/08 22:51:58;;;;;;;;;;;9.70;99.90;;;;;;8380013;28;20260;-76
2022/02/08 22:55:59;;;;;;;;;;;9.70;99.90;;;;;;8380117;28;19960;-75
2022/02/08 23:00:05;;;;;;;;;;;9.70;99.90;;;;;;8378941;28;20264;-76
2022/02/08 23:04:08;;;;;;;;;;;9.70;99.90;;;;;;8373692;28;19968;-76
2022/02/08 23:08:11;;;;;;;;;;;9.70;99.90;;;;;;8380922;28;19939;-76
2022/02/08 23:16:32;;;;;;;;;;;9.60;99.90;;;;;;8382809;28;19924;-76
2022/02/08 23:37:56;;;;;;;;;;;9.60;99.90;;;;;;8392039;28;19932;-75
2022/02/08 23:42:04;;;;;;;;;;;9.60;99.90;;;;;;8392008;28;20996;-75
2022/02/08 23:46:06;;;;;;;;;;;9.60;99.90;;;;;;8374965;28;19990;-75
2022/02/08 23:50:07;;;;;;;;;;;9.60;99.90;;;;;;8391600;28;19994;-76
2022/02/08 23:54:19;;;;;;;;;;;9.60;99.90;;;;;;8388708;28;19929;-76
2022/02/08 23:58:21;;;;;;;;;;;9.60;99.90;;;;;;8393658;28;20340;-76
